Time;durP1;ratioP1;P1;durP2;ratioP2;P2;SDS_P1;SDS_P2;PMS_P1;PMS_P2;Temp;Humidity;BMP_temperature;BMP_pressure;BME280_temperature;BME280_humidity;BME280_pressure;Samples;Min_cycle;Max_cycle;Signal;HPM_P1;HPM_P2
2023/06/16 00:01:42;;;;;;;6.43;5.85;;;25.30;48.90;;;;;;4207596;28;20286;-54
2023/06/16 00:04:25;;;;;;;5.15;4.75;;;25.30;49.00;;;;;;4208870;28;20509;-52
2023/06/16 00:07:09;;;;;;;6.32;5.03;;;25.30;49.20;;;;;;4209264;28;20132;-51
2023/06/16 00:09:51;;;;;;;6.90;5.57;;;25.30;49.30;;;;;;4215640;28;20812;-52
2023/06/16 00:12:33;;;;;;;6.60;5.85;;;25.30;49.30;;;;;;4227272;27;20498;-50
2023/06/16 00:15:14;;;;;;;6.25;5.40;;;25.30;49.30;;;;;;4211659;27;20046;-52
2023/06/16 00:17:56;;;;;;;6.43;5.93;;;25.30;49.40;;;;;;4208642;28;20050;-51
2023/06/16 00:20:37;;;;;;;8.05;6.60;;;25.30;49.50;;;;;;4207483;28;20055;-49
2023/06/16 00:23:20;;;;;;;10.88;6.22;;;25.30;49.60;;;;;;4221775;28;20521;-50
2023/06/16 00:26:03;;;;;;;7.18;6.57;;;25.30;49.60;;;;;;4208621;28;20054;-48
2023/06/16 00:28:45;;;;;;;6.25;5.70;;;25.30;49.70;;;;;;4207264;28;20043;-49
2023/06/16 00:31:27;;;;;;;7.43;5.65;;;25.20;49.70;;;;;;4242466;27;20042;-51
2023/06/16 00:34:07;;;;;;;;;;;25.20;49.70;;;;;;4206343;28;20055;-51
2023/06/16 00:36:49;;;;;;;;;;;25.20;49.70;;;;;;4207883;28;19926;-48
2023/06/16 00:39:30;;;;;;;6.20;5.50;;;25.20;49.60;;;;;;4208430;28;20428;-48
2023/06/16 00:42:13;;;;;;;6.13;5.63;;;25.20;49.70;;;;;;4210950;28;20127;-47
2023/06/16 00:44:54;;;;;;;6.20;5.70;;;25.10;50.50;;;;;;4224809;28;20181;-47
2023/06/16 00:47:35;;;;;;;6.68;5.80;;;25.10;49.90;;;;;;4207168;28;20071;-48
2023/06/16 00:50:18;;;;;;;6.97;6.38;;;25.10;49.90;;;;;;4222617;28;20058;-51
2023/06/16 00:53:00;;;;;;;7.78;7.07;;;25.10;50.00;;;;;;4225141;28;20043;-48
2023/06/16 00:55:41;;;;;;;6.25;5.60;;;25.10;50.10;;;;;;4225781;28;20042;-46
2023/06/16 00:58:24;;;;;;;8.65;6.07;;;25.10;50.20;;;;;;4222291;27;20045;-50
2023/06/16 01:01:05;;;;;;;8.25;7.00;;;25.10;50.30;;;;;;4225183;28;20066;-50
2023/06/16 01:03:50;;;;;;;7.82;5.93;;;25.10;50.40;;;;;;4207091;28;20374;-50
2023/06/16 01:06:48;;;;;;;7.30;6.60;;;25.00;50.40;;;;;;4208076;28;20125;-51
2023/06/16 01:09:40;;;;;;;8.77;7.20;;;25.00;50.70;;;;;;4208049;28;20055;-52
2023/06/16 01:12:25;;;;;;;;;;;25.00;50.60;;;;;;4213888;27;20051;-48
2023/06/16 01:15:11;;;;;;;8.85;6.63;;;25.00;50.60;;;;;;4210224;28;20329;-49
2023/06/16 01:17:57;;;;;;;6.97;6.43;;;25.00;50.60;;;;;;4217931;27;20065;-53
2023/06/16 01:20:48;;;;;;;10.15;6.68;;;25.00;50.80;;;;;;4241051;27;20057;-53
2023/06/16 01:23:40;;;;;;;6.80;6.30;;;25.00;51.00;;;;;;4214313;28;20206;-51
2023/06/16 01:26:26;;;;;;;7.30;6.72;;;24.90;51.00;;;;;;4222777;28;20410;-49
2023/06/16 01:29:11;;;;;;;8.10;6.10;;;24.90;51.10;;;;;;4206050;28;20059;-47
2023/06/16 01:31:55;;;;;;;7.47;6.70;;;24.90;51.10;;;;;;4216497;28;20058;-47
2023/06/16 01:34:36;;;;;;;7.32;6.38;;;24.90;51.20;;;;;;4227135;28;20051;-50
2023/06/16 01:37:19;;;;;;;6.72;6.13;;;24.90;51.30;;;;;;4227659;27;20181;-47
2023/06/16 01:40:00;;;;;;;7.88;7.10;;;24.90;51.40;;;;;;4214436;28;20051;-49
2023/06/16 01:42:44;;;;;;;8.27;7.13;;;24.90;51.40;;;;;;4211162;28;20213;-47
2023/06/16 01:45:25;;;;;;;7.32;6.57;;;24.90;51.40;;;;;;4228377;27;20046;-48
2023/06/16 01:48:07;;;;;;;7.57;6.88;;;24.80;51.40;;;;;;4225774;28;20062;-48
2023/06/16 01:50:49;;;;;;;7.53;6.82;;;24.80;51.50;;;;;;4212878;28;20559;-52
2023/06/16 01:53:30;;;;;;;7.07;6.43;;;24.80;51.60;;;;;;4211032;28;20067;-54
2023/06/16 01:56:11;;;;;;;;;;;24.80;51.60;;;;;;4211363;28;20059;-48
2023/06/16 01:58:54;;;;;;;8.73;6.50;;;24.80;51.60;;;;;;4225365;28;20061;-51
2023/06/16 02:01:42;;;;;;;7.13;6.43;;;24.80;51.50;;;;;;4227635;27;20571;-51
2023/06/16 02:04:25;;;;;;;8.25;7.45;;;24.80;51.70;;;;;;4227632;28;20409;-51
2023/06/16 02:07:10;;;;;;;7.88;7.18;;;24.80;51.70;;;;;;4228483;27;20058;-52
2023/06/16 02:09:52;;;;;;;9.02;7.18;;;24.80;51.80;;;;;;4244425;27;20176;-52
2023/06/16 02:12:33;;;;;;;8.75;7.63;;;24.80;51.90;;;;;;4228609;27;20053;-51
2023/06/16 02:15:18;;;;;;;8.18;7.47;;;24.70;51.80;;;;;;4225052;27;20499;-52
2023/06/16 02:18:02;;;;;;;8.18;7.38;;;24.70;51.90;;;;;;4225026;28;20050;-52
2023/06/16 02:20:43;;;;;;;7.93;7.22;;;24.70;51.90;;;;;;4240676;27;20050;-51
2023/06/16 02:23:24;;;;;;;7.78;7.20;;;24.70;51.90;;;;;;4227417;28;20051;-51
2023/06/16 02:26:05;;;;;;;7.60;6.90;;;24.70;52.00;;;;;;4227246;27;20045;-50
2023/06/16 02:28:47;;;;;;;;;;;24.70;52.00;;;;;;4243619;27;20054;-48
2023/06/16 02:31:29;;;;;;;8.02;7.40;;;24.70;51.90;;;;;;4234758;27;19926;-49
2023/06/16 02:34:11;;;;;;;9.95;8.10;;;24.70;51.90;;;;;;4227176;27;20055;-50
2023/06/16 02:36:52;;;;;;;8.63;7.80;;;24.70;52.00;;;;;;4237586;27;20049;-48
2023/06/16 02:39:33;;;;;;;8.32;7.72;;;24.60;52.00;;;;;;4244614;27;20058;-51
2023/06/16 02:42:14;;;;;;;8.45;7.75;;;24.60;52.00;;;;;;4224958;27;20128;-51
2023/06/16 02:44:55;;;;;;;8.75;7.88;;;24.60;52.90;;;;;;4238155;27;20519;-51
2023/06/16 02:47:37;;;;;;;9.55;8.52;;;24.60;52.20;;;;;;4242991;27;20055;-52
2023/06/16 02:50:19;;;;;;;10.20;8.27;;;24.60;52.30;;;;;;4242365;27;20047;-54
2023/06/16 02:53:01;;;;;;;8.95;8.07;;;24.50;52.30;;;;;;4192391;28;20044;-54
2023/06/16 02:55:43;;;;;;;;;;;24.50;52.30;;;;;;4207763;28;20121;-51
2023/06/16 02:58:23;;;;;;;;;;;24.50;52.30;;;;;;4209597;28;20405;-53
2023/06/16 03:01:05;;;;;;;9.68;8.77;;;24.50;52.20;;;;;;4218779;28;19942;-53
2023/06/16 03:03:54;;;;;;;9.63;8.65;;;24.50;52.30;;;;;;4215769;27;20054;-55
2023/06/16 03:06:47;;;;;;;11.35;8.98;;;24.50;52.40;;;;;;4242479;27;20046;-54
2023/06/16 03:09:42;;;;;;;10.02;9.02;;;24.50;52.50;;;;;;4242635;27;20132;-53
2023/06/16 03:12:24;;;;;;;10.05;9.07;;;24.40;52.60;;;;;;4208601;28;20158;-53
2023/06/16 03:15:12;;;;;;;10.25;9.20;;;24.40;52.60;;;;;;4240579;27;20123;-52
2023/06/16 03:17:53;;;;;;;;;;;24.40;52.60;;;;;;4244101;27;20057;-52
2023/06/16 03:20:35;;;;;;;10.18;9.27;;;24.40;52.60;;;;;;4235365;27;20057;-53
2023/06/16 03:23:27;;;;;;;10.40;9.60;;;24.40;52.60;;;;;;4224359;27;20054;-48
2023/06/16 03:26:08;;;;;;;10.00;8.98;;;24.40;52.60;;;;;;4242235;27;20057;-53
2023/06/16 03:29:09;;;;;;;9.60;8.60;;;24.40;52.80;;;;;;4243195;27;20065;-53
2023/06/16 03:31:50;;;;;;;9.80;9.07;;;24.40;52.90;;;;;;4207745;28;20043;-49
2023/06/16 03:34:32;;;;;;;10.65;9.63;;;24.40;52.90;;;;;;4233621;27;20054;-54
2023/06/16 03:37:15;;;;;;;11.23;9.15;;;24.30;52.90;;;;;;4241716;27;20203;-53
2023/06/16 03:40:05;;;;;;;9.60;8.70;;;24.40;53.70;;;;;;4237746;27;20059;-52
2023/06/16 03:42:48;;;;;;;9.80;8.90;;;24.30;53.00;;;;;;4225311;28;20417;-54
2023/06/16 03:45:30;;;;;;;10.30;9.35;;;24.30;53.70;;;;;;4207498;28;20047;-53
2023/06/16 03:48:11;;;;;;;12.18;9.25;;;24.30;53.00;;;;;;4206499;28;20386;-49
2023/06/16 03:50:58;;;;;;;10.25;9.35;;;24.30;53.10;;;;;;4220136;28;20165;-51
2023/06/16 03:53:40;;;;;;;10.50;9.60;;;24.30;53.10;;;;;;4223196;27;20086;-55
2023/06/16 03:56:22;;;;;;;11.43;10.43;;;24.30;53.10;;;;;;4224416;27;20051;-53
2023/06/16 03:59:03;;;;;;;11.32;10.30;;;24.30;53.20;;;;;;4210135;28;20390;-49
2023/06/16 04:01:46;;;;;;;11.18;10.10;;;24.30;53.20;;;;;;4191340;28;20140;-50
2023/06/16 04:04:27;;;;;;;11.68;10.57;;;24.30;53.20;;;;;;4228902;27;20062;-50
2023/06/16 04:07:12;;;;;;;11.13;10.20;;;24.30;53.30;;;;;;4241338;27;20519;-51
2023/06/16 04:09:55;;;;;;;11.18;10.07;;;24.30;53.30;;;;;;4236633;27;20051;-50
2023/06/16 04:12:36;;;;;;;11.63;10.50;;;24.30;53.30;;;;;;4222956;28;20074;-51
2023/06/16 04:15:20;;;;;;;11.40;10.45;;;24.30;53.40;;;;;;4192375;28;20048;-50
2023/06/16 04:18:01;;;;;;;12.65;11.27;;;24.40;53.50;;;;;;4206998;28;20486;-55
2023/06/16 04:20:42;;;;;;;;;;;24.30;53.50;;;;;;4221798;28;20050;-54
2023/06/16 04:23:23;;;;;;;12.32;10.43;;;24.30;53.40;;;;;;4207499;28;19938;-50
2023/06/16 04:26:08;;;;;;;12.52;11.35;;;24.30;53.30;;;;;;4210600;28;20071;-50
2023/06/16 04:28:53;;;;;;;12.90;11.70;;;24.40;53.50;;;;;;4210118;28;20046;-53
2023/06/16 04:31:37;;;;;;;13.65;12.30;;;24.30;53.40;;;;;;4206160;28;20051;-49
2023/06/16 04:34:19;;;;;;;13.52;12.32;;;24.40;53.90;;;;;;4226597;27;20050;-49
2023/06/16 04:37:00;;;;;;;13.35;12.05;;;24.30;53.90;;;;;;4242495;27;20139;-54
2023/06/16 04:39:47;;;;;;;16.15;12.75;;;24.40;53.90;;;;;;4232641;27;20512;-51
2023/06/16 04:42:34;;;;;;;14.23;12.38;;;24.30;53.80;;;;;;4212179;27;20156;-51
2023/06/16 04:45:15;;;;;;;13.65;12.25;;;24.40;53.90;;;;;;4241235;27;20479;-52
2023/06/16 04:47:59;;;;;;;14.00;12.57;;;24.40;53.90;;;;;;4240977;27;20119;-51
2023/06/16 04:50:40;;;;;;;;;;;24.40;54.00;;;;;;4234698;28;20050;-50
2023/06/16 04:53:21;;;;;;;14.52;12.98;;;24.40;53.90;;;;;;4224069;28;20391;-53
2023/06/16 04:56:02;;;;;;;14.70;13.27;;;24.40;53.90;;;;;;4208172;28;20174;-52
2023/06/16 04:58:44;;;;;;;15.00;13.57;;;24.40;54.20;;;;;;4207208;28;20066;-53
2023/06/16 05:01:26;;;;;;;15.57;14.07;;;24.50;54.60;;;;;;4229278;27;20058;-52
2023/06/16 05:04:08;;;;;;;15.43;14.02;;;24.50;54.70;;;;;;4239234;27;20449;-50
2023/06/16 05:06:49;;;;;;;16.30;14.75;;;24.50;54.90;;;;;;4228864;27;20501;-48
2023/06/16 05:09:30;;;;;;;;;;;24.50;55.00;;;;;;4228455;27;20051;-49
2023/06/16 05:12:11;;;;;;;17.90;15.52;;;24.50;54.80;;;;;;4230431;27;19926;-51
2023/06/16 05:14:55;;;;;;;17.20;15.50;;;24.50;54.80;;;;;;4236081;27;20055;-52
2023/06/16 05:17:37;;;;;;;17.60;15.73;;;24.50;55.20;;;;;;4228219;28;20058;-51
2023/06/16 05:20:18;;;;;;;20.02;17.25;;;24.50;55.40;;;;;;4221310;27;20056;-49
2023/06/16 05:23:02;;;;;;;17.17;15.45;;;24.50;55.50;;;;;;4227411;28;20092;-48
2023/06/16 05:25:45;;;;;;;19.08;17.08;;;24.60;55.60;;;;;;4226458;27;20134;-53
2023/06/16 05:28:26;;;;;;;19.17;17.20;;;24.60;55.60;;;;;;4210294;28;20059;-53
2023/06/16 05:31:08;;;;;;;;;;;24.70;55.60;;;;;;4214696;28;20055;-47
2023/06/16 05:33:49;;;;;;;17.48;15.63;;;24.80;55.40;;;;;;4214774;28;19973;-49
2023/06/16 05:36:34;;;;;;;18.10;16.23;;;24.90;55.30;;;;;;4211273;28;20070;-54
2023/06/16 05:39:17;;;;;;;17.23;14.23;;;25.00;55.30;;;;;;4209914;28;20050;-52
2023/06/16 05:42:00;;;;;;;15.30;13.90;;;25.00;55.10;;;;;;4209752;28;20390;-54
2023/06/16 05:44:41;;;;;;;;;;;25.10;55.10;;;;;;4220247;28;20055;-48
2023/06/16 05:47:23;;;;;;;14.98;13.50;;;25.20;54.90;;;;;;4234141;27;20011;-49
2023/06/16 05:50:08;;;;;;;13.02;11.88;;;25.20;54.60;;;;;;4227006;27;20074;-51
2023/06/16 05:52:50;;;;;;;14.02;12.65;;;25.30;54.50;;;;;;4199140;28;20444;-49
2023/06/16 05:55:31;;;;;;;16.40;14.90;;;25.30;54.60;;;;;;4218866;28;20047;-49
2023/06/16 05:58:12;;;;;;;14.88;13.50;;;25.20;54.80;;;;;;4225298;27;20059;-50
2023/06/16 06:00:54;;;;;;;13.70;12.43;;;25.30;55.10;;;;;;4209764;28;20547;-49
2023/06/16 06:03:36;;;;;;;;;;;25.30;55.30;;;;;;4215379;27;20100;-52
2023/06/16 06:06:19;;;;;;;13.10;11.10;;;25.30;55.40;;;;;;4223705;27;19930;-50
2023/06/16 06:09:00;;;;;;;11.95;10.38;;;25.20;55.30;;;;;;4211442;28;20124;-49
2023/06/16 06:11:42;;;;;;;11.05;9.90;;;25.20;55.60;;;;;;4209092;28;20124;-51
2023/06/16 06:14:23;;;;;;;11.13;10.05;;;25.20;55.60;;;;;;4224901;27;20051;-47
2023/06/16 06:17:05;;;;;;;11.20;10.10;;;25.30;55.60;;;;;;4217528;27;20945;-50
2023/06/16 06:19:47;;;;;;;10.63;9.68;;;25.30;55.60;;;;;;4209743;28;20081;-53
2023/06/16 06:22:32;;;;;;;10.63;8.82;;;25.30;55.70;;;;;;4203924;28;20047;-50
2023/06/16 06:25:15;;;;;;;11.38;9.27;;;25.40;55.60;;;;;;4207880;28;20067;-50
2023/06/16 06:27:57;;;;;;;9.38;8.48;;;25.40;55.50;;;;;;4223688;28;20062;-49
2023/06/16 06:30:38;;;;;;;9.55;8.60;;;25.40;55.30;;;;;;4220691;28;20062;-53
2023/06/16 06:33:20;;;;;;;10.27;9.25;;;25.50;55.40;;;;;;4225756;28;20051;-50
2023/06/16 06:36:04;;;;;;;9.82;8.90;;;25.50;55.20;;;;;;4225776;28;20051;-49
2023/06/16 06:38:49;;;;;;;9.23;8.52;;;25.50;55.20;;;;;;4198248;27;20046;-51
2023/06/16 06:41:30;;;;;;;12.07;8.75;;;25.60;55.40;;;;;;4213055;28;20099;-52
2023/06/16 06:44:19;;;;;;;9.43;8.43;;;25.60;55.50;;;;;;4217523;27;20489;-48
2023/06/16 06:47:03;;;;;;;9.40;8.70;;;25.60;55.40;;;;;;4205126;27;20057;-49
2023/06/16 06:49:45;;;;;;;9.35;8.50;;;25.70;55.30;;;;;;4209232;27;20066;-48
2023/06/16 06:52:27;;;;;;;9.85;8.80;;;25.70;55.30;;;;;;4209944;28;20047;-47
2023/06/16 06:55:09;;;;;;;9.75;8.88;;;25.80;56.00;;;;;;4208841;28;20062;-50
2023/06/16 06:57:51;;;;;;;8.73;7.93;;;25.80;55.20;;;;;;4209721;28;20047;-51
2023/06/16 07:00:32;;;;;;;10.82;7.93;;;25.90;55.10;;;;;;4226218;27;20507;-50
2023/06/16 07:03:14;;;;;;;;;;;25.90;55.00;;;;;;4227538;27;20616;-48
2023/06/16 07:05:57;;;;;;;7.53;6.82;;;25.90;54.70;;;;;;4211311;28;20065;-48
2023/06/16 07:08:40;;;;;;;6.57;5.85;;;26.00;54.70;;;;;;4210918;28;20051;-47
2023/06/16 07:11:22;;;;;;;6.30;5.80;;;26.00;54.40;;;;;;4218944;27;20058;-49
2023/06/16 07:14:04;;;;;;;7.15;6.47;;;26.10;54.30;;;;;;4214580;27;20493;-47
2023/06/16 07:16:45;;;;;;;7.72;7.03;;;26.10;54.30;;;;;;4224130;27;20445;-48
2023/06/16 07:19:28;;;;;;;6.88;6.18;;;26.10;54.50;;;;;;4233901;27;20042;-48
2023/06/16 07:22:09;;;;;;;6.05;5.38;;;26.10;54.60;;;;;;4230130;27;20413;-49
2023/06/16 07:24:51;;;;;;;7.60;6.90;;;26.10;54.60;;;;;;4209442;28;20051;-47
2023/06/16 07:27:35;;;;;;;6.95;5.90;;;26.10;54.60;;;;;;4212098;28;20051;-52
2023/06/16 07:30:18;;;;;;;7.63;6.18;;;26.10;54.70;;;;;;4237871;27;20058;-53
2023/06/16 07:32:59;;;;;;;7.65;6.45;;;26.10;54.80;;;;;;4213118;28;20055;-48
2023/06/16 07:35:40;;;;;;;6.18;5.68;;;26.10;54.80;;;;;;4224978;27;20509;-50
2023/06/16 07:38:21;;;;;;;6.63;5.88;;;26.10;54.60;;;;;;4226024;27;20066;-54
2023/06/16 07:41:04;;;;;;;6.90;6.40;;;26.10;54.50;;;;;;4242879;27;20046;-51
2023/06/16 07:43:47;;;;;;;6.30;5.70;;;26.10;54.40;;;;;;4242935;27;20930;-52
2023/06/16 07:46:28;;;;;;;7.28;5.82;;;26.10;54.30;;;;;;4241420;27;20041;-48
2023/06/16 07:49:09;;;;;;;6.15;5.65;;;26.10;54.20;;;;;;4220193;27;20063;-51
2023/06/16 07:51:50;;;;;;;6.65;6.15;;;26.00;54.10;;;;;;4241134;27;20054;-51
2023/06/16 07:54:32;;;;;;;9.38;6.55;;;26.00;54.00;;;;;;4242607;27;20050;-54
2023/06/16 07:57:14;;;;;;;6.85;5.72;;;26.00;53.90;;;;;;4242860;27;20070;-50
2023/06/16 07:59:54;;;;;;;5.88;5.25;;;26.00;54.20;;;;;;4224003;28;20429;-47
2023/06/16 08:02:36;;;;;;;6.25;5.75;;;26.00;54.70;;;;;;4207537;28;20129;-48
2023/06/16 08:05:20;;;;;;;6.00;5.50;;;25.90;53.90;;;;;;4207821;28;20051;-48
2023/06/16 08:08:01;;;;;;;6.35;5.78;;;25.90;53.60;;;;;;4210601;27;20051;-52
2023/06/16 08:10:42;;;;;;;7.03;6.43;;;25.90;53.10;;;;;;4208864;28;20109;-49
2023/06/16 08:13:25;;;;;;;;;;;25.90;53.10;;;;;;4228416;27;20043;-49
2023/06/16 08:16:07;;;;;;;5.40;4.97;;;25.90;52.80;;;;;;4230951;27;19930;-49
2023/06/16 08:18:48;;;;;;;6.65;4.90;;;25.90;52.60;;;;;;4225632;27;20580;-48
2023/06/16 08:21:28;;;;;;;6.10;5.60;;;25.90;52.40;;;;;;4233812;27;20050;-48
2023/06/16 08:24:09;;;;;;;5.47;5.07;;;25.90;52.00;;;;;;4234312;27;20414;-50
2023/06/16 08:26:50;;;;;;;;;;;25.90;51.90;;;;;;4225707;28;20120;-49
2023/06/16 08:29:33;;;;;;;6.67;4.70;;;25.90;52.00;;;;;;4208592;28;20377;-47
2023/06/16 08:32:14;;;;;;;5.15;4.82;;;25.90;51.80;;;;;;4224064;27;20058;-48
2023/06/16 08:34:55;;;;;;;4.28;3.95;;;25.90;51.30;;;;;;4224710;27;20066;-50
2023/06/16 08:37:36;;;;;;;3.33;3.05;;;25.90;51.20;;;;;;4225398;27;20177;-48
2023/06/16 08:40:17;;;;;;;3.92;3.53;;;25.90;50.50;;;;;;4224288;28;20054;-48
2023/06/16 08:42:59;;;;;;;3.30;3.10;;;25.90;49.70;;;;;;4225406;28;20046;-52
2023/06/16 08:45:42;;;;;;;3.55;3.25;;;25.90;49.00;;;;;;4209296;28;20055;-51
2023/06/16 08:48:23;;;;;;;2.88;2.67;;;25.90;48.00;;;;;;4235488;27;20527;-52
2023/06/16 08:51:05;;;;;;;2.78;2.58;;;25.90;47.30;;;;;;4229382;27;20209;-52
2023/06/16 08:53:47;;;;;;;;;;;25.90;47.10;;;;;;4235459;27;20699;-49
2023/06/16 08:56:31;;;;;;;3.25;2.53;;;25.90;46.20;;;;;;4208419;28;19927;-51
2023/06/16 08:59:14;;;;;;;2.85;2.10;;;25.90;46.10;;;;;;4227315;27;20046;-47
2023/06/16 09:01:59;;;;;;;2.85;2.65;;;25.90;45.30;;;;;;4218696;28;20097;-48
2023/06/16 09:04:41;;;;;;;2.80;2.25;;;25.90;44.20;;;;;;4225000;28;20055;-47
2023/06/16 09:07:27;;;;;;;4.25;2.20;;;26.00;42.70;;;;;;4208356;28;20608;-47
2023/06/16 09:10:09;;;;;;;3.90;2.60;;;26.00;43.40;;;;;;4225140;28;20116;-47
2023/06/16 09:12:54;;;;;;;2.60;2.40;;;25.90;43.40;;;;;;4208015;28;20406;-50
2023/06/16 09:15:35;;;;;;;2.65;2.10;;;26.00;43.60;;;;;;4206979;28;20166;-48
2023/06/16 09:18:18;;;;;;;4.25;2.80;;;26.00;44.00;;;;;;4232933;27;20054;-47
2023/06/16 09:21:00;;;;;;;2.33;2.20;;;26.00;44.10;;;;;;4227562;27;20117;-48
2023/06/16 09:23:43;;;;;;;3.60;2.10;;;26.00;43.60;;;;;;4223983;27;20062;-48
2023/06/16 09:26:29;;;;;;;3.40;2.50;;;26.00;43.80;;;;;;4224942;28;20120;-46
2023/06/16 09:29:24;;;;;;;2.40;2.22;;;26.10;43.70;;;;;;4224970;28;20046;-47
2023/06/16 09:32:09;;;;;;;4.13;2.53;;;26.10;43.60;;;;;;4224948;28;20076;-46
2023/06/16 09:34:52;;;;;;;2.35;2.15;;;26.10;43.70;;;;;;4207790;28;20544;-47
2023/06/16 09:37:33;;;;;;;2.40;2.30;;;26.10;43.70;;;;;;4207135;28;20097;-48
2023/06/16 09:40:16;;;;;;;2.75;2.55;;;26.10;43.30;;;;;;4206852;28;20182;-52
2023/06/16 09:42:59;;;;;;;3.08;2.25;;;26.20;42.90;;;;;;4214780;27;20096;-50
2023/06/16 09:45:41;;;;;;;2.65;2.30;;;26.20;43.40;;;;;;4241776;27;20054;-49
2023/06/16 09:48:22;;;;;;;2.60;2.30;;;26.20;43.30;;;;;;4219921;27;20097;-51
2023/06/16 09:51:10;;;;;;;3.50;2.22;;;26.20;43.10;;;;;;4199784;28;20059;-48
2023/06/16 09:53:53;;;;;;;2.58;2.40;;;26.20;43.20;;;;;;4230184;27;20062;-51
2023/06/16 09:56:34;;;;;;;3.33;2.30;;;26.20;43.40;;;;;;4226894;27;20054;-50
2023/06/16 09:59:16;;;;;;;2.60;2.50;;;26.20;43.50;;;;;;4213782;28;20605;-52
2023/06/16 10:01:58;;;;;;;3.10;2.38;;;26.20;43.10;;;;;;4212557;28;20051;-50
2023/06/16 10:04:40;;;;;;;2.42;2.20;;;26.30;43.60;;;;;;4194489;28;20055;-48
2023/06/16 10:07:23;;;;;;;3.08;2.55;;;26.30;43.40;;;;;;4208743;28;20051;-52
2023/06/16 10:10:10;;;;;;;5.40;2.10;;;26.30;43.30;;;;;;4210730;28;20051;-50
2023/06/16 10:12:53;;;;;;;2.97;2.50;;;26.30;43.00;;;;;;4209677;28;20442;-52
2023/06/16 10:15:38;;;;;;;2.67;2.50;;;26.30;43.10;;;;;;4227942;27;20095;-52
2023/06/16 10:18:21;;;;;;;4.20;2.47;;;26.30;43.10;;;;;;4243471;27;20042;-48
2023/06/16 10:21:03;;;;;;;2.22;2.00;;;26.30;43.20;;;;;;4244490;27;20192;-50
2023/06/16 10:23:47;;;;;;;2.55;2.35;;;26.30;43.30;;;;;;4244720;27;20119;-51
2023/06/16 10:26:28;;;;;;;2.28;2.17;;;26.30;43.40;;;;;;4243473;27;20050;-52
2023/06/16 10:29:12;;;;;;;2.15;1.95;;;26.30;43.20;;;;;;4225918;27;20051;-49
2023/06/16 10:32:04;;;;;;;2.15;1.95;;;26.30;43.00;;;;;;4213138;28;20055;-51
2023/06/16 10:34:51;;;;;;;1.90;1.80;;;26.30;42.40;;;;;;4209997;28;20051;-51
2023/06/16 10:37:32;;;;;;;2.00;1.90;;;26.30;42.30;;;;;;4212098;28;20055;-49
2023/06/16 10:40:15;;;;;;;2.50;2.30;;;26.40;42.40;;;;;;4231823;27;20058;-49
2023/06/16 10:42:58;;;;;;;2.47;2.20;;;26.40;42.40;;;;;;4227724;27;20064;-51
2023/06/16 10:45:39;;;;;;;2.08;1.90;;;26.40;42.70;;;;;;4212804;28;20493;-48
2023/06/16 10:48:20;;;;;;;2.10;2.00;;;26.40;42.40;;;;;;4209735;28;20148;-50
2023/06/16 10:51:01;;;;;;;3.28;2.20;;;26.40;43.00;;;;;;4215449;27;20559;-51
2023/06/16 10:53:42;;;;;;;;;;;26.40;42.90;;;;;;4209247;28;20112;-50
2023/06/16 10:56:25;;;;;;;2.08;1.83;;;26.40;43.30;;;;;;4210263;28;19931;-50
2023/06/16 10:59:16;;;;;;;2.20;2.10;;;26.40;43.30;;;;;;4215173;27;20414;-51
2023/06/16 11:01:57;;;;;;;4.10;2.40;;;26.40;42.70;;;;;;4209422;28;20093;-51
2023/06/16 11:04:38;;;;;;;4.20;2.20;;;26.40;43.10;;;;;;4223781;28;20050;-49
2023/06/16 11:07:19;;;;;;;;;;;26.40;43.20;;;;;;4227355;27;20050;-48
2023/06/16 11:10:07;;;;;;;3.70;1.92;;;26.50;43.40;;;;;;4208876;28;20061;-48
2023/06/16 11:12:49;;;;;;;2.80;1.90;;;26.40;43.20;;;;;;4197553;28;20070;-49
2023/06/16 11:15:31;;;;;;;2.63;2.13;;;26.50;43.20;;;;;;4225083;27;20043;-49
2023/06/16 11:18:13;;;;;;;2.08;1.98;;;26.50;43.10;;;;;;4210304;28;20128;-52
2023/06/16 11:20:56;;;;;;;2.55;2.35;;;26.50;43.20;;;;;;4210116;28;20051;-49
2023/06/16 11:23:37;;;;;;;2.42;2.03;;;26.50;43.50;;;;;;4224198;27;20059;-48
2023/06/16 11:26:20;;;;;;;;;;;26.50;43.40;;;;;;4208995;28;20059;-50
2023/06/16 11:29:07;;;;;;;2.22;2.13;;;26.50;43.10;;;;;;4209772;28;20060;-50
2023/06/16 11:31:49;;;;;;;4.65;1.92;;;26.60;42.80;;;;;;4226085;27;20054;-50
2023/06/16 11:34:30;;;;;;;2.25;1.88;;;26.60;42.80;;;;;;4226270;27;20095;-47
2023/06/16 11:37:11;;;;;;;;;;;26.60;42.20;;;;;;4227006;27;20132;-50
2023/06/16 11:39:52;;;;;;;2.35;2.13;;;26.60;42.60;;;;;;4226105;27;19962;-49
2023/06/16 11:42:34;;;;;;;2.42;2.03;;;26.60;42.40;;;;;;4226748;28;20050;-47
2023/06/16 11:45:16;;;;;;;2.35;2.25;;;26.60;41.40;;;;;;4226701;27;20051;-50
2023/06/16 11:47:59;;;;;;;2.90;2.20;;;26.60;41.30;;;;;;4207868;28;20089;-47
2023/06/16 11:50:41;;;;;;;2.17;2.05;;;26.60;41.70;;;;;;4209744;28;20182;-48
2023/06/16 11:53:23;;;;;;;2.53;2.15;;;26.60;41.00;;;;;;4208471;28;20500;-49
2023/06/16 11:56:08;;;;;;;3.55;2.00;;;26.60;41.00;;;;;;4208365;28;20454;-48
2023/06/16 11:58:49;;;;;;;3.55;2.17;;;26.60;41.10;;;;;;4207904;28;20059;-51
2023/06/16 12:01:31;;;;;;;1.92;1.83;;;26.60;41.70;;;;;;4209434;28;20553;-45
2023/06/16 12:04:13;;;;;;;2.53;2.28;;;26.60;40.90;;;;;;4209009;28;20129;-51
2023/06/16 12:06:55;;;;;;;2.53;2.17;;;26.60;41.60;;;;;;4221784;28;20496;-53
2023/06/16 12:09:39;;;;;;;5.13;2.28;;;26.60;40.40;;;;;;4208898;28;20055;-50
2023/06/16 12:12:21;;;;;;;2.40;2.20;;;26.60;40.70;;;;;;4224076;27;20054;-48
2023/06/16 12:15:03;;;;;;;2.40;2.20;;;26.70;40.90;;;;;;4207718;28;20067;-50
2023/06/16 12:17:47;;;;;;;4.32;2.28;;;26.60;40.50;;;;;;4225519;28;20216;-50
2023/06/16 12:20:28;;;;;;;3.33;1.88;;;26.60;39.60;;;;;;4225650;28;20396;-51
2023/06/16 12:23:11;;;;;;;2.72;2.15;;;26.60;40.40;;;;;;4208802;28;20055;-48
2023/06/16 12:25:52;;;;;;;3.67;2.15;;;26.60;40.10;;;;;;4208918;28;20050;-46
2023/06/16 12:28:34;;;;;;;2.50;2.08;;;26.60;40.10;;;;;;4207587;28;20051;-48
2023/06/16 12:31:15;;;;;;;1.90;1.80;;;26.60;40.60;;;;;;4208093;28;20505;-47
2023/06/16 12:33:58;;;;;;;2.83;2.00;;;26.60;40.30;;;;;;4208949;28;20505;-47
2023/06/16 12:36:41;;;;;;;5.68;2.17;;;26.60;39.90;;;;;;4207578;28;20185;-47
2023/06/16 12:39:22;;;;;;;2.42;1.95;;;26.60;40.10;;;;;;4208822;28;21024;-50
2023/06/16 12:42:05;;;;;;;2.55;2.40;;;26.60;39.80;;;;;;4221602;28;20489;-48
2023/06/16 12:44:47;;;;;;;4.20;2.03;;;26.60;40.10;;;;;;4225331;28;20105;-52
2023/06/16 12:47:30;;;;;;;4.60;2.28;;;26.60;39.60;;;;;;4214231;28;20055;-50
2023/06/16 12:50:12;;;;;;;2.17;2.08;;;26.60;39.50;;;;;;4225139;28;20128;-49
2023/06/16 12:52:53;;;;;;;2.25;2.10;;;26.60;39.70;;;;;;4225637;28;20095;-49
2023/06/16 12:55:35;;;;;;;2.60;2.40;;;26.60;39.60;;;;;;4225280;28;20059;-50
2023/06/16 12:58:15;;;;;;;2.03;1.92;;;26.60;39.60;;;;;;4225374;28;20054;-48
2023/06/16 13:00:56;;;;;;;3.70;2.42;;;26.60;39.50;;;;;;4225060;28;20050;-47
2023/06/16 13:03:40;;;;;;;;;;;26.60;39.40;;;;;;4208926;28;20519;-49
2023/06/16 13:06:23;;;;;;;2.78;2.05;;;26.60;40.20;;;;;;4207000;28;19931;-48
2023/06/16 13:09:04;;;;;;;2.22;2.00;;;26.70;40.30;;;;;;4207841;28;20050;-48
2023/06/16 13:11:45;;;;;;;2.42;2.33;;;26.70;40.40;;;;;;4208373;28;20398;-51
2023/06/16 13:14:27;;;;;;;2.90;2.20;;;26.70;40.50;;;;;;4207957;28;20512;-50
2023/06/16 13:17:08;;;;;;;2.50;2.25;;;26.70;40.30;;;;;;4213699;28;20105;-51
2023/06/16 13:19:49;;;;;;;;;;;26.70;40.60;;;;;;4225349;28;20050;-52
2023/06/16 13:22:31;;;;;;;3.90;2.28;;;26.70;40.60;;;;;;4225354;28;19927;-51
2023/06/16 13:25:12;;;;;;;4.00;2.35;;;26.70;40.80;;;;;;4225156;28;20055;-50
2023/06/16 13:27:54;;;;;;;2.45;2.13;;;26.70;40.80;;;;;;4228773;27;20065;-49
2023/06/16 13:30:36;;;;;;;2.28;2.08;;;26.80;41.20;;;;;;4228863;28;20047;-47
2023/06/16 13:33:17;;;;;;;3.85;2.22;;;26.80;41.10;;;;;;4210188;28;20162;-47
2023/06/16 13:35:58;;;;;;;2.22;2.08;;;26.80;41.00;;;;;;4211422;28;20050;-48
2023/06/16 13:38:42;;;;;;;;;;;26.80;41.20;;;;;;4229939;27;20509;-52
2023/06/16 13:41:25;;;;;;;3.13;2.10;;;26.80;41.50;;;;;;4243764;27;20055;-51
2023/06/16 13:44:06;;;;;;;2.42;2.10;;;26.80;41.50;;;;;;4211624;28;20071;-51
2023/06/16 13:46:48;;;;;;;2.83;2.63;;;26.80;41.50;;;;;;4214926;27;20100;-48
2023/06/16 13:49:30;;;;;;;3.10;2.22;;;26.80;41.50;;;;;;4214441;27;20089;-49
2023/06/16 13:52:11;;;;;;;2.65;2.47;;;26.80;41.70;;;;;;4209571;28;20059;-48
2023/06/16 13:54:53;;;;;;;;;;;26.90;41.50;;;;;;4220929;27;20051;-51
2023/06/16 13:57:34;;;;;;;2.70;2.45;;;26.90;41.50;;;;;;4227558;27;19988;-53
2023/06/16 14:00:15;;;;;;;;;;;26.90;41.40;;;;;;4212805;28;20068;-48
2023/06/16 14:02:57;;;;;;;4.07;2.55;;;26.90;41.90;;;;;;4210842;28;19950;-53
2023/06/16 14:05:39;;;;;;;4.40;2.30;;;26.90;41.50;;;;;;4212451;27;20183;-49
2023/06/16 14:08:20;;;;;;;2.78;2.50;;;26.90;41.70;;;;;;4241365;27;20133;-53
2023/06/16 14:11:02;;;;;;;;;;;26.90;41.20;;;;;;4236143;27;20785;-49